Castile, New York
Current Conditions -  °F | °C
As of 9:25 AM on Monday 26 Jan 2015 (Local Time) from KDSV Reporting Station
Light Snow Light Snow  
Wind Chill: 14°   Ceiling: 1900
Heat Index: 14°   Visibility: 0.75mi
Dew Point:   Wind: 0mph
Humidity: 80%   Direction: NA
Pressure: 29.95"   Gusts: NA
Location:  42.63°N, 78.05°W
Report Text: KDSV 261425Z AUTO 00000KT 3/4SM -SN VV019 M10/M13 A2995 RMK AO2 P0000 T11001128
Loading
Personal Weather Stations






























Interactive Weather Map New forecast layout! Learn more

10-Day Weather Forecast

Advertisements
Track Severe Weather on mobile